Time;durP1;ratioP1;P1;durP2;ratioP2;P2;SDS_P1;SDS_P2;PMS_P1;PMS_P2;Temp;Humidity;BMP_temperature;BMP_pressure;BME280_temperature;BME280_humidity;BME280_pressure;Samples;Min_cycle;Max_cycle;Signal;HPM_P1;HPM_P2
2022/02/04 00:07:14;;;;;;;38.00;18.40;;;;;;;5.12;100.00;100093.94;7390830;19;20415;-52
2022/02/04 00:10:04;;;;;;;35.60;15.00;;;;;;;5.10;100.00;100101.56;7395491;19;20392;-56
2022/02/04 00:20:50;;;;;;;34.13;14.33;;;;;;;5.03;100.00;100084.09;7391514;19;20411;-56
2022/02/04 00:23:25;;;;;;;33.50;16.07;;;;;;;5.04;100.00;100085.00;7395087;19;20390;-49
2022/02/04 00:26:04;;;;;;;38.63;18.20;;;;;;;5.06;100.00;100084.28;7390222;19;20383;-50
2022/02/04 00:28:45;;;;;;;37.97;15.90;;;;;;;5.06;100.00;100091.97;7395526;19;20383;-49
2022/02/04 00:31:30;;;;;;;36.33;16.83;;;;;;;5.10;100.00;100086.22;7390782;19;20406;-50
2022/02/04 00:34:04;;;;;;;33.27;16.67;;;;;;;5.05;100.00;100091.88;7386361;19;20415;-50
2022/02/04 00:36:41;;;;;;;38.10;17.40;;;;;;;5.08;100.00;100081.81;7395364;19;20398;-48
2022/02/04 00:39:14;;;;;;;27.30;12.10;;;;;;;5.00;100.00;100083.97;7390282;19;20498;-50
2022/02/04 00:41:44;;;;;;;35.33;16.83;;;;;;;5.04;100.00;100080.78;7393096;19;20411;-48
2022/02/04 00:44:19;;;;;;;30.63;14.00;;;;;;;4.98;100.00;100078.75;7391223;19;20442;-57
2022/02/04 00:47:01;;;;;;;41.90;17.37;;;;;;;5.06;100.00;100080.84;7384289;19;20406;-50
2022/02/04 00:49:42;;;;;;;31.83;14.03;;;;;;;5.02;100.00;100068.72;7394053;19;20396;-53
2022/02/04 00:52:20;;;;;;;25.90;11.70;;;;;;;5.00;100.00;100077.19;7389282;19;20419;-52
2022/02/04 00:54:57;;;;;;;29.80;14.03;;;;;;;5.05;100.00;100071.41;7393661;19;20379;-52
2022/02/04 00:57:44;;;;;;;35.20;14.60;;;;;;;5.05;100.00;100079.09;7390427;19;20407;-52
2022/02/04 01:27:20;;;;;;;38.70;16.93;;;;;;;5.05;100.00;100081.63;7389212;19;20414;-53
2022/02/04 01:29:59;;;;;;;33.60;13.93;;;;;;;5.03;100.00;100078.13;7392919;19;20921;-49
2022/02/04 01:32:29;;;;;;;49.27;21.70;;;;;;;5.10;100.00;100076.00;7391210;19;20472;-57
2022/02/04 01:34:58;;;;;;;38.47;16.43;;;;;;;5.05;100.00;100074.88;7396081;19;20410;-53
2022/02/04 01:37:29;;;;;;;53.63;20.30;;;;;;;5.11;100.00;100076.84;7393215;19;20449;-51
2022/02/04 01:39:58;;;;;;;46.47;20.37;;;;;;;5.14;100.00;100077.03;7402667;19;20380;-55
2022/02/04 01:42:30;;;;;;;52.30;21.77;;;;;;;5.10;100.00;100078.53;7401091;19;20443;-54
2022/02/04 01:45:00;;;;;;;47.50;20.13;;;;;;;5.12;100.00;100069.28;7403292;19;20387;-53
2022/02/04 01:47:30;;;;;;;46.57;16.67;;;;;;;5.09;100.00;100073.34;7399882;19;20427;-53
2022/02/04 01:50:00;;;;;;;44.70;19.80;;;;;;;5.09;100.00;100066.53;7402605;19;20898;-54
2022/02/04 01:52:30;;;;;;;43.70;17.97;;;;;;;5.12;100.00;100068.38;7400188;19;20502;-52
2022/02/04 01:54:59;;;;;;;22.00;9.33;;;;;;;5.06;100.00;100070.59;7402938;19;20388;-50
2022/02/04 01:57:31;;;;;;;46.03;20.30;;;;;;;5.10;100.00;100064.88;7400043;19;20514;-52
2022/02/04 02:00:01;;;;;;;43.80;19.67;;;;;;;5.11;100.00;100067.50;7401813;19;20395;-48
2022/02/04 02:02:30;;;;;;;42.60;19.37;;;;;;;5.17;100.00;100064.38;7398890;19;20446;-52
2022/02/04 02:04:59;;;;;;;48.60;20.23;;;;;;;5.17;100.00;100059.28;7402479;19;20387;-49
2022/02/04 02:07:30;;;;;;;49.20;20.60;;;;;;;5.14;100.00;100065.09;7399673;19;20977;-51
2022/02/04 02:10:04;;;;;;;50.53;21.80;;;;;;;5.14;100.00;100061.69;7401527;19;20768;-55
2022/02/04 02:12:44;;;;;;;49.30;22.50;;;;;;;5.18;100.00;100063.59;7399032;19;20438;-46
2022/02/04 02:15:20;;;;;;;45.73;19.93;;;;;;;5.21;100.00;100068.88;7402117;19;20390;-49
2022/02/04 02:34:39;;;;;;;33.83;11.93;;;;;;;5.12;100.00;100043.69;7399903;19;20375;-49
2022/02/04 02:45:36;;;;;;;50.87;21.23;;;;;;;5.16;100.00;100054.06;7397259;19;20399;-49
2022/02/04 02:48:21;;;;;;;62.30;23.43;;;;;;;5.18;100.00;100038.00;7394684;19;20988;-52
2022/02/04 02:51:26;;;;;;;54.10;20.93;;;;;;;5.15;100.00;100042.97;7392233;19;20425;-50
2022/02/04 02:54:07;;;;;;;59.03;21.87;;;;;;;5.18;100.00;100038.00;7396328;19;20383;-51
2022/02/04 02:59:28;;;;;;;41.33;16.30;;;;;;;5.16;100.00;100026.81;7386611;19;20764;-54
2022/02/04 03:01:58;;;;;;;38.13;16.27;;;;;;;5.17;100.00;100028.56;7389275;19;20407;-50
2022/02/04 03:04:27;;;;;;;57.70;24.23;;;;;;;5.18;100.00;100025.22;7398059;19;20382;-53
2022/02/04 03:06:57;;;;;;;54.63;22.10;;;;;;;5.22;100.00;100019.47;7397526;19;20439;-51
2022/02/04 03:09:26;;;;;;;35.23;13.37;;;;;;;5.21;100.00;100022.84;7400405;19;20924;-48
2022/02/04 03:11:58;;;;;;;32.57;13.17;;;;;;;5.20;100.00;100026.19;7396241;19;20442;-51
2022/02/04 03:14:28;;;;;;;49.20;20.00;;;;;;;5.24;100.00;100011.88;7398802;19;20922;-50
2022/02/04 03:16:59;;;;;;;65.83;24.70;;;;;;;5.26;100.00;100013.72;7393976;19;20439;-54
2022/02/04 03:19:29;;;;;;;61.13;25.70;;;;;;;5.26;100.00;100021.41;7400436;19;20516;-55
2022/02/04 03:22:04;;;;;;;42.53;15.70;;;;;;;5.23;100.00;100018.66;7395714;19;20435;-49
2022/02/04 03:24:34;;;;;;;53.57;24.23;;;;;;;5.27;100.00;100012.91;7400331;19;20398;-48
2022/02/04 03:27:10;;;;;;;61.87;24.07;;;;;;;5.28;100.00;100006.09;7396931;19;20438;-51
2022/02/04 03:29:56;;;;;;;52.10;20.20;;;;;;;5.26;100.00;100003.50;7399645;19;20462;-49
2022/02/04 03:32:25;;;;;;;49.47;15.70;;;;;;;5.25;100.00;99988.94;7396635;19;20450;-52
2022/02/04 03:34:55;;;;;;;46.87;20.17;;;;;;;5.26;100.00;99995.81;7398081;19;20398;-56
2022/02/04 03:37:24;;;;;;;53.07;24.80;;;;;;;5.30;100.00;99990.84;7396728;19;20972;-50
2022/02/04 03:39:54;;;;;;;53.07;22.77;;;;;;;5.26;100.00;99998.38;7399546;19;20397;-52
2022/02/04 03:42:26;;;;;;;64.03;22.90;;;;;;;5.24;100.00;99999.97;7396967;19;21012;-52
2022/02/04 03:44:55;;;;;;;51.50;20.77;;;;;;;5.24;100.00;99997.41;7399603;19;20398;-54
2022/02/04 03:47:25;;;;;;;69.33;29.30;;;;;;;5.27;100.00;99981.34;7394112;19;20443;-51
2022/02/04 03:49:54;;;;;;;58.13;25.30;;;;;;;5.23;100.00;99982.00;7397855;19;20391;-50
2022/02/04 03:52:23;;;;;;;52.50;22.67;;;;;;;5.22;100.00;99983.66;7396112;19;20974;-50
2022/02/04 03:54:53;;;;;;;45.97;19.23;;;;;;;5.20;100.00;99980.16;7397600;19;20395;-52
2022/02/04 03:57:25;;;;;;;57.47;23.23;;;;;;;5.23;100.00;99982.84;7395468;19;20993;-51
2022/02/04 03:59:55;;;;;;;54.07;21.37;;;;;;;5.21;100.00;99981.91;7398107;19;20391;-56
2022/02/04 04:02:24;;;;;;;60.37;27.20;;;;;;;5.19;100.00;99973.28;7391431;19;20443;-51
2022/02/04 04:04:54;;;;;;;63.17;26.23;;;;;;;5.22;100.00;99981.09;7398202;19;20402;-55
2022/02/04 04:07:23;;;;;;;51.73;21.13;;;;;;;5.21;100.00;99988.69;7395347;19;20427;-49
2022/02/04 04:10:00;;;;;;;47.87;21.30;;;;;;;5.20;100.00;99987.84;7398161;19;20924;-51
2022/02/04 04:12:32;;;;;;;69.40;21.00;;;;;;;5.20;100.00;99990.38;7395641;19;20435;-49
2022/02/04 04:15:06;;;;;;;65.40;27.87;;;;;;;5.21;100.00;99991.25;7397316;19;20396;-52
2022/02/04 04:17:42;;;;;;;56.53;24.50;;;;;;;5.19;100.00;99968.19;7395468;19;20445;-53
2022/02/04 04:20:13;;;;;;;63.93;24.90;;;;;;;5.18;100.00;99976.63;7397536;19;20403;-53
2022/02/04 04:22:44;;;;;;;28.77;13.63;;;;;;;5.18;100.00;99980.88;7395283;19;20774;-52
2022/02/04 04:25:14;;;;;;;66.60;26.27;;;;;;;5.20;100.00;99975.03;7398010;19;20394;-50
2022/02/04 04:27:47;;;;;;;42.97;19.30;;;;;;;5.17;100.00;99980.00;7395435;19;20782;-53
2022/02/04 04:30:18;;;;;;;62.00;28.40;;;;;;;5.19;100.00;99982.63;7397395;19;20966;-54
2022/02/04 04:32:48;;;;;;;53.67;22.53;;;;;;;5.15;100.00;99989.28;7394475;19;20442;-54
2022/02/04 04:35:19;;;;;;;63.27;25.20;;;;;;;5.20;100.00;99986.94;7396537;19;20406;-55
2022/02/04 04:37:55;;;;;;;67.97;24.40;;;;;;;5.23;100.00;99987.97;7393079;19;20447;-52
2022/02/04 04:40:38;;;;;;;61.50;25.63;;;;;;;5.21;100.00;99991.25;7397184;19;20427;-56
2022/02/04 04:43:24;;;;;;;58.10;24.37;;;;;;;5.20;100.00;99980.16;7394794;19;21374;-51
2022/02/04 05:29:41;;;;;;;35.57;15.70;;;;;;;5.03;100.00;99946.03;7391362;19;20400;-56
2022/02/04 05:32:14;;;;;;;47.70;17.97;;;;;;;5.09;100.00;99940.38;7389985;19;20443;-49
2022/02/04 05:34:45;;;;;;;47.27;21.07;;;;;;;5.11;100.00;99943.88;7394720;19;20402;-52
2022/02/04 05:37:16;;;;;;;55.67;25.13;;;;;;;5.12;100.00;99943.06;7391860;19;20991;-50
2022/02/04 05:39:53;;;;;;;58.27;26.40;;;;;;;5.07;100.00;99939.41;7395150;19;20403;-49
2022/02/04 05:42:26;;;;;;;48.30;21.20;;;;;;;5.07;100.00;99936.88;7391961;19;20785;-49
2022/02/04 05:45:02;;;;;;;50.70;21.70;;;;;;;5.08;100.00;99939.47;7395563;19;20395;-49
2022/02/04 05:47:35;;;;;;;51.93;20.43;;;;;;;5.09;100.00;99941.22;7388300;19;20452;-48
2022/02/04 05:50:14;;;;;;;59.70;23.97;;;;;;;5.09;100.00;99940.38;7394067;19;20734;-49
2022/02/04 05:52:59;;;;;;;42.03;18.23;;;;;;;5.04;100.00;99926.47;7391923;19;20494;-49
2022/02/04 05:55:46;;;;;;;50.37;23.53;;;;;;;5.03;100.00;99924.72;7394216;19;20392;-52
2022/02/04 05:58:29;;;;;;;39.10;16.30;;;;;;;5.02;100.00;99921.25;7394311;19;20798;-51
2022/02/04 06:01:11;;;;;;;58.07;25.33;;;;;;;5.11;100.00;99908.06;7389236;19;20426;-51
2022/02/04 06:03:55;;;;;;;38.10;14.73;;;;;;;5.01;100.00;99906.72;7394665;19;20387;-52
2022/02/04 06:06:57;;;;;;;42.17;17.87;;;;;;;5.02;100.00;99905.06;7391166;19;20451;-52
2022/02/04 06:12:42;;;;;;;47.43;21.97;;;;;;;5.03;100.00;99904.25;7389664;19;20973;-53
2022/02/04 06:22:07;;;;;;;56.30;23.60;;;;;;;5.05;100.00;99900.09;7392961;19;20397;-52
2022/02/04 06:23:33;;;;;;;37.13;16.57;;;;;;;5.04;100.00;99895.78;7393056;19;20403;-54
2022/02/04 06:26:06;;;;;;;38.73;15.60;;;;;;;4.97;100.00;99890.34;7397907;19;20423;-51
2022/02/04 06:28:38;;;;;;;44.93;18.87;;;;;;;5.02;100.00;99892.28;7401272;19;20415;-50
2022/02/04 06:31:07;;;;;;;38.20;15.73;;;;;;;5.03;100.00;99892.34;7396360;19;20433;-55
2022/02/04 06:33:37;;;;;;;40.03;17.77;;;;;;;5.03;100.00;99894.88;7401402;19;20391;-52
2022/02/04 06:36:10;;;;;;;51.50;21.73;;;;;;;5.11;100.00;99897.84;7396426;19;20406;-53
2022/02/04 06:38:39;;;;;;;42.33;19.33;;;;;;;5.10;100.00;99896.09;7401387;19;20921;-49
2022/02/04 06:41:09;;;;;;;65.47;23.37;;;;;;;5.12;100.00;99899.59;7396208;19;20787;-51
2022/02/04 06:43:38;;;;;;;44.97;17.33;;;;;;;5.11;100.00;99902.97;7401027;19;20918;-52
2022/02/04 06:46:08;;;;;;;40.67;14.83;;;;;;;5.12;100.00;99909.81;7396855;19;20387;-55
2022/02/04 06:48:37;;;;;;;52.80;24.67;;;;;;;5.18;100.00;99899.91;7400968;19;20387;-52
2022/02/04 06:51:09;;;;;;;43.73;20.03;;;;;;;5.14;100.00;99906.53;7395815;19;20750;-52
2022/02/04 06:53:39;;;;;;;35.53;14.90;;;;;;;5.13;100.00;99901.38;7400693;19;20467;-50
2022/02/04 06:56:08;;;;;;;51.70;21.37;;;;;;;5.14;100.00;99892.91;7394556;19;21054;-50
2022/02/04 06:58:38;;;;;;;54.63;22.70;;;;;;;5.23;100.00;99898.44;7400527;19;20398;-52
2022/02/04 07:01:09;;;;;;;46.73;20.97;;;;;;;5.23;100.00;99906.13;7395131;19;20890;-47
2022/02/04 07:03:38;;;;;;;44.60;19.70;;;;;;;5.24;100.00;99895.09;7400438;19;20415;-54
2022/02/04 07:06:15;;;;;;;57.20;20.80;;;;;;;5.26;100.00;99888.38;7396843;19;20932;-50
2022/02/04 07:08:59;;;;;;;33.10;14.27;;;;;;;5.21;100.00;99896.63;7400146;19;20396;-50
2022/02/04 07:12:04;;;;;;;41.70;17.70;;;;;;;5.18;100.00;99891.38;7395149;19;20459;-50
2022/02/04 07:14:43;;;;;;;34.77;16.37;;;;;;;5.22;100.00;99895.81;7399940;19;20383;-48
2022/02/04 07:17:21;;;;;;;55.37;25.30;;;;;;;5.22;100.00;99891.59;7395374;19;20801;-53
2022/02/04 07:19:48;;;;;;;45.67;20.70;;;;;;;5.20;100.00;99879.53;7399548;19;20662;-54
2022/02/04 07:22:21;;;;;;;48.00;21.00;;;;;;;5.24;100.00;99889.13;7395211;19;20446;-54
2022/02/04 07:24:53;;;;;;;40.37;15.77;;;;;;;5.18;100.00;99878.56;7399204;19;20388;-51
2022/02/04 07:27:22;;;;;;;51.93;23.70;;;;;;;5.24;100.00;99868.66;7395990;19;20443;-51
2022/02/04 07:29:53;;;;;;;50.93;21.37;;;;;;;5.38;100.00;99872.75;7398858;19;20745;-50
2022/02/04 07:32:29;;;;;;;36.37;17.00;;;;;;;5.24;100.00;99884.84;7395973;19;21092;-49
2022/02/04 07:35:17;;;;;;;47.47;20.73;;;;;;;5.33;100.00;99881.88;7398725;19;20402;-53
2022/02/04 07:43:13;;;;;;;45.17;20.67;;;;;;;5.33;100.00;99870.78;7397420;19;20513;-50
2022/02/04 07:45:43;;;;;;;36.33;14.73;;;;;;;5.32;100.00;99880.13;7398442;19;20395;-48
2022/02/04 07:48:12;;;;;;;49.43;23.03;;;;;;;5.35;100.00;99871.72;7395100;19;20463;-46
2022/02/04 07:50:43;;;;;;;51.03;22.23;;;;;;;5.37;100.00;99854.75;7396696;19;20433;-47
2022/02/04 07:53:15;;;;;;;55.67;26.50;;;;;;;5.36;100.00;99861.56;7395294;19;20514;-46
2022/02/04 07:55:45;;;;;;;43.33;18.13;;;;;;;5.34;100.00;99852.94;7398217;19;20402;-50
2022/02/04 07:58:16;;;;;;;41.47;19.43;;;;;;;5.35;100.00;99849.59;7397555;19;20450;-51
2022/02/04 08:00:46;;;;;;;48.80;22.03;;;;;;;5.37;100.00;99847.09;7396895;19;20506;-47
2022/02/04 08:06:13;;;;;;;56.13;24.03;;;;;;;5.36;100.00;99853.00;7391717;19;20430;-49
2022/02/04 08:08:55;;;;;;;27.40;13.03;;;;;;;5.37;100.00;99850.53;7397900;19;20396;-52
2022/02/04 08:11:42;;;;;;;47.67;21.70;;;;;;;5.40;100.00;99854.94;7392543;19;20407;-49
2022/02/04 08:14:17;;;;;;;34.13;14.27;;;;;;;5.39;100.00;99842.94;7398157;19;20398;-53
2022/02/04 08:25:28;;;;;;;34.47;14.70;;;;;;;5.48;100.00;99839.94;7393534;19;20403;-48
2022/02/04 08:36:28;;;;;;;39.80;18.63;;;;;;;5.54;100.00;99830.00;7390750;19;20403;-50
2022/02/04 08:39:12;;;;;;;42.47;18.00;;;;;;;5.60;100.00;99829.41;7397299;19;20953;-49
2022/02/04 08:47:37;;;;;;;35.40;15.27;;;;;;;5.67;100.00;99834.00;7391916;19;20447;-50
2022/02/04 08:52:59;;;;;;;34.73;14.77;;;;;;;5.70;100.00;99839.28;7393515;19;20442;-49
2022/02/04 08:55:38;;;;;;;35.30;15.80;;;;;;;5.72;100.00;99834.22;7396471;19;20398;-48
2022/02/04 08:58:24;;;;;;;34.40;15.70;;;;;;;5.74;100.00;99828.34;7392914;19;20427;-48
2022/02/04 09:01:02;;;;;;;34.43;15.30;;;;;;;5.75;100.00;99819.88;7391322;19;20760;-52
2022/02/04 09:03:40;;;;;;;43.27;19.13;;;;;;;5.80;100.00;99820.97;7396082;19;20659;-53
2022/02/04 09:06:18;;;;;;;29.03;14.13;;;;;;;5.84;100.00;99823.69;7392340;19;20399;-52
2022/02/04 09:08:51;;;;;;;57.93;15.80;;;;;;;5.85;100.00;99825.44;7396388;19;20471;-49
2022/02/04 09:11:39;;;;;;;43.47;19.87;;;;;;;5.90;100.00;99827.38;7391559;19;20421;-53
2022/02/04 09:17:05;;;;;;;36.63;17.17;;;;;;;6.05;100.00;99824.69;7392205;19;20431;-51
2022/02/04 09:19:47;;;;;;;32.30;15.27;;;;;;;6.06;100.00;99823.84;7395370;19;20395;-48
2022/02/04 09:22:28;;;;;;;48.20;20.50;;;;;;;6.06;100.00;99816.19;7389324;19;20411;-52
2022/02/04 09:24:57;;;;;;;36.47;15.90;;;;;;;6.15;100.00;99817.41;7391949;19;20388;-50
2022/02/04 09:27:26;;;;;;;48.03;23.30;;;;;;;6.17;100.00;99815.78;7389278;19;20407;-52
2022/02/04 09:30:02;;;;;;;35.47;16.57;;;;;;;6.17;100.00;99820.91;7391413;19;20421;-51
2022/02/04 09:32:31;;;;;;;37.53;15.93;;;;;;;6.21;100.00;99807.44;7389061;19;20411;-53
2022/02/04 09:35:05;;;;;;;48.90;25.00;;;;;;;6.28;100.00;99803.44;7391261;19;20387;-54
2022/02/04 09:37:34;;;;;;;47.37;18.47;;;;;;;6.27;100.00;99801.69;7387594;19;20532;-47
2022/02/04 09:40:05;;;;;;;53.07;24.57;;;;;;;6.33;100.00;99800.31;7389496;19;20393;-48
2022/02/04 09:42:35;;;;;;;80.67;30.80;;;;;;;6.29;100.00;99803.53;7388743;19;20403;-49
2022/02/04 09:45:08;;;;;;;25.13;11.77;;;;;;;6.29;100.00;99805.19;7391057;19;20407;-52
2022/02/04 09:47:39;;;;;;;33.97;15.30;;;;;;;6.29;100.00;99793.28;7388471;19;20427;-47
2022/02/04 09:50:15;;;;;;;30.13;16.00;;;;;;;6.28;100.00;99794.09;7390757;19;20782;-54
2022/02/04 10:10:12;;;;;;;24.53;11.03;;;;;;;6.45;100.00;99783.69;7397370;19;20406;-51
2022/02/04 10:13:12;;;;;;;27.33;10.60;;;;;;;6.47;100.00;99776.94;7396075;19;20427;-45
2022/02/04 10:15:51;;;;;;;26.00;12.80;;;;;;;6.52;100.00;99774.56;7398129;19;20397;-51
2022/02/04 10:18:34;;;;;;;33.10;15.80;;;;;;;6.48;100.00;99776.13;7394645;19;20430;-48
2022/02/04 10:21:06;;;;;;;26.90;12.00;;;;;;;6.57;100.00;99767.97;7393562;19;20419;-51
2022/02/04 10:23:54;;;;;;;25.60;11.87;;;;;;;6.53;100.00;99768.63;7397867;19;20396;-49
2022/02/04 10:26:25;;;;;;;24.70;11.13;;;;;;;6.58;100.00;99762.91;7392999;19;20419;-48
2022/02/04 10:28:55;;;;;;;34.23;18.33;;;;;;;6.60;100.00;99763.84;7397804;19;20395;-52
2022/02/04 10:31:27;;;;;;;31.07;13.27;;;;;;;6.60;100.00;99752.69;7393128;19;20435;-45
2022/02/04 10:34:07;;;;;;;29.97;13.60;;;;;;;6.64;100.00;99748.56;7396930;19;20399;-46
2022/02/04 10:36:42;;;;;;;22.57;10.60;;;;;;;6.64;100.00;99751.13;7394762;19;20439;-50
2022/02/04 10:39:31;;;;;;;32.77;12.20;;;;;;;6.58;100.00;99744.09;7398775;19;20398;-50
2022/02/04 10:42:19;;;;;;;37.30;15.70;;;;;;;6.68;100.00;99738.53;7391628;19;20423;-54
2022/02/04 10:47:52;;;;;;;29.20;11.87;;;;;;;6.68;100.00;99733.41;7392972;19;20419;-51
2022/02/04 10:59:10;;;;;;;17.80;9.10;;;;;;;6.64;100.00;99720.38;7397536;19;20387;-51
2022/02/04 11:02:01;;;;;;;25.10;12.73;;;;;;;6.67;100.00;99720.53;7391869;19;20419;-53
2022/02/04 11:04:36;;;;;;;18.77;9.83;;;;;;;6.72;100.00;99709.63;7396126;19;20388;-53
2022/02/04 11:07:22;;;;;;;25.73;15.50;;;;;;;6.79;100.00;99710.75;7394211;19;20420;-50
2022/02/04 11:10:06;;;;;;;26.23;13.10;;;;;;;6.82;100.00;99715.13;7394613;19;20456;-48
2022/02/04 11:32:25;;;;;;;17.33;10.30;;;;;;;7.13;100.00;99683.88;7391334;19;20418;-50
2022/02/04 11:35:22;;;;;;;22.10;12.00;;;;;;;7.09;100.00;99679.47;7398142;19;20390;-48
2022/02/04 11:52:38;;;;;;;22.87;10.10;;;;;;;7.37;100.00;99649.69;7391961;19;20413;-49
2022/02/04 11:55:32;;;;;;;16.53;8.33;;;;;;;7.46;100.00;99635.44;7394746;19;20974;-50
2022/02/04 11:58:06;;;;;;;17.47;10.40;;;;;;;7.47;100.00;99629.50;7392388;19;20981;-46
2022/02/04 12:00:39;;;;;;;13.63;6.23;;;;;;;7.33;100.00;99627.28;7393429;19;20407;-50
2022/02/04 12:03:29;;;;;;;16.97;7.60;;;;;;;7.30;100.00;99620.34;7392483;19;20438;-50
2022/02/04 12:05:58;;;;;;;19.40;10.50;;;;;;;7.39;100.00;99626.66;7392298;19;20456;-47
2022/02/04 12:08:38;;;;;;;7.73;4.50;;;;;;;7.30;100.00;99624.63;7393705;19;20479;-48
2022/02/04 12:11:11;;;;;;;15.60;6.60;;;;;;;7.30;100.00;99622.91;7391103;19;21376;-49
2022/02/04 12:14:14;;;;;;;15.13;8.40;;;;;;;7.28;100.00;99618.59;7398751;19;21060;-52
2022/02/04 12:17:09;;;;;;;14.67;6.90;;;;;;;7.27;100.00;99614.25;7390724;19;21060;-50
2022/02/04 12:19:43;;;;;;;14.93;5.70;;;;;;;7.22;100.00;99619.22;7392680;19;20789;-54
2022/02/04 12:22:13;;;;;;;9.90;4.60;;;;;;;7.18;100.00;99611.34;7387713;19;20400;-54
2022/02/04 12:24:45;;;;;;;14.00;8.70;;;;;;;7.15;100.00;99600.16;7394311;19;20938;-47
2022/02/04 12:27:34;;;;;;;11.70;6.60;;;;;;;7.12;100.00;99597.47;7390222;19;20415;-49
2022/02/04 12:30:34;;;;;;;12.40;7.93;;;;;;;7.16;100.00;99596.78;7392304;19;20390;-50
2022/02/04 12:33:05;;;;;;;13.07;6.53;;;;;;;7.12;100.00;99594.91;7390582;19;20417;-50
2022/02/04 12:35:35;;;;;;;14.20;6.93;;;;;;;7.10;100.00;99591.41;7393570;19;20386;-52
2022/02/04 12:38:05;;;;;;;13.30;6.70;;;;;;;7.06;100.00;99589.53;7389220;19;20418;-49
2022/02/04 12:40:34;;;;;;;11.03;6.03;;;;;;;7.07;100.00;99570.78;7392277;19;20396;-51
2022/02/04 12:43:04;;;;;;;9.47;6.20;;;;;;;7.05;100.00;99569.84;7391322;19;20444;-50
2022/02/04 12:45:39;;;;;;;10.07;6.37;;;;;;;7.07;100.00;99568.22;7393435;19;20389;-53
2022/02/04 12:48:10;;;;;;;9.27;5.37;;;;;;;7.04;100.00;99557.84;7390695;19;21082;-48
2022/02/04 12:50:41;;;;;;;14.23;8.77;;;;;;;7.12;100.00;99553.88;7393166;19;20413;-52
2022/02/04 12:53:11;;;;;;;14.10;7.73;;;;;;;7.06;100.00;99556.19;7389798;19;21001;-50
2022/02/04 12:56:02;;;;;;;11.17;5.63;;;;;;;7.05;100.00;99549.34;7395538;19;20395;-47
2022/02/04 13:09:57;;;;;;;12.60;5.77;;;;;;;7.07;100.00;99514.34;7391632;19;20391;-49
2022/02/04 13:12:27;;;;;;;11.00;7.20;;;;;;;7.07;100.00;99518.63;7390338;19;20443;-50
2022/02/04 13:14:56;;;;;;;10.63;6.40;;;;;;;7.05;100.00;99513.41;7392328;19;20384;-52
2022/02/04 13:17:37;;;;;;;12.03;5.03;;;;;;;7.06;100.00;99511.72;7388685;19;20426;-52
2022/02/04 13:20:08;;;;;;;11.50;6.90;;;;;;;7.06;100.00;99512.59;7390045;19;20391;-48
2022/02/04 13:22:40;;;;;;;9.43;5.80;;;;;;;7.06;100.00;99504.91;7391760;19;20443;-48
2022/02/04 13:25:20;;;;;;;22.97;6.83;;;;;;;7.10;100.00;99499.06;7395650;19;20733;-52
2022/02/04 13:28:05;;;;;;;9.40;5.87;;;;;;;7.05;100.00;99503.16;7388572;19;20447;-53
2022/02/04 13:30:36;;;;;;;11.03;5.17;;;;;;;7.05;100.00;99498.03;7393952;19;20436;-47
2022/02/04 13:33:17;;;;;;;10.97;6.47;;;;;;;7.08;100.00;99487.00;7392130;19;20443;-49
2022/02/04 13:35:55;;;;;;;9.70;4.97;;;;;;;7.04;100.00;99491.16;7402133;19;20395;-52
2022/02/04 13:38:31;;;;;;;5.20;3.27;;;;;;;7.02;100.00;99490.22;7401017;19;20453;-48
2022/02/04 13:41:11;;;;;;;7.07;4.57;;;;;;;7.05;100.00;99492.03;7398176;19;20422;-48
2022/02/04 13:44:01;;;;;;;9.20;5.60;;;;;;;6.96;100.00;99462.66;7403063;19;20729;-52
2022/02/04 13:46:43;;;;;;;6.27;2.83;;;;;;;6.92;100.00;99477.91;7399163;19;20987;-50
2022/02/04 13:49:36;;;;;;;6.43;3.67;;;;;;;7.01;100.00;99471.41;7402370;19;20733;-49
2022/02/04 13:52:16;;;;;;;7.97;4.10;;;;;;;7.05;100.00;99466.38;7397929;19;20458;-46
2022/02/04 13:55:09;;;;;;;6.67;3.90;;;;;;;7.03;100.00;99464.63;7402126;19;20395;-49
2022/02/04 13:57:44;;;;;;;4.20;2.40;;;;;;;7.09;100.00;99468.25;7396731;19;20450;-51
2022/02/04 14:03:16;;;;;;;5.37;2.63;;;;;;;7.08;100.00;99462.22;7398802;19;20422;-48
2022/02/04 14:05:56;;;;;;;6.00;3.00;;;;;;;7.13;100.00;99459.84;7401041;19;20377;-53
2022/02/04 14:08:30;;;;;;;5.20;3.37;;;;;;;7.10;100.00;99449.47;7400725;19;20454;-48
2022/02/04 14:11:03;;;;;;;4.40;2.63;;;;;;;7.17;100.00;99443.72;7397475;19;20425;-48
2022/02/04 14:13:55;;;;;;;6.00;2.80;;;;;;;7.18;100.00;99431.78;7401493;19;20387;-49
2022/02/04 14:16:25;;;;;;;6.60;3.67;;;;;;;7.18;100.00;99426.66;7398517;19;20437;-49
2022/02/04 14:18:55;;;;;;;4.47;2.63;;;;;;;7.18;100.00;99439.47;7400885;19;20400;-51
2022/02/04 14:21:27;;;;;;;5.80;2.20;;;;;;;7.19;100.00;99428.38;7396393;19;20443;-48
2022/02/04 14:24:00;;;;;;;8.80;3.70;;;;;;;7.18;100.00;99432.63;7401100;19;20398;-47
2022/02/04 14:26:33;;;;;;;12.83;3.20;;;;;;;7.20;100.00;99420.75;7397982;19;20448;-49
2022/02/04 14:29:08;;;;;;;4.77;3.10;;;;;;;7.18;100.00;99421.50;7401756;19;20390;-51
2022/02/04 14:31:44;;;;;;;2.90;1.67;;;;;;;7.12;100.00;99430.75;7396663;19;20441;-53
2022/02/04 14:37:17;;;;;;;4.20;2.50;;;;;;;7.09;100.00;99409.25;7398348;19;20531;-48
2022/02/04 14:53:24;;;;;;;7.97;2.43;;;;;;;6.94;100.00;99386.50;7399141;19;20511;-49
2022/02/04 15:01:54;;;;;;;5.63;3.80;;;;;;;7.02;100.00;99364.53;7390592;19;20473;-51
2022/02/04 15:04:37;;;;;;;3.30;2.17;;;;;;;7.00;100.00;99368.75;7399105;19;20838;-53
2022/02/04 15:07:08;;;;;;;3.30;2.20;;;;;;;7.03;100.00;99376.56;7396624;19;20436;-54
2022/02/04 15:09:49;;;;;;;5.67;3.47;;;;;;;7.02;100.00;99364.53;7400023;19;20918;-51
2022/02/04 15:12:18;;;;;;;9.03;3.47;;;;;;;7.03;100.00;99361.19;7395268;19;20461;-50
2022/02/04 15:14:48;;;;;;;7.43;3.97;;;;;;;7.04;100.00;99357.78;7399868;19;20392;-54
2022/02/04 15:17:17;;;;;;;4.37;2.60;;;;;;;7.03;100.00;99340.66;7396465;19;20441;-51
2022/02/04 15:19:49;;;;;;;8.23;4.00;;;;;;;7.03;100.00;99335.53;7397482;19;20401;-51
2022/02/04 15:22:23;;;;;;;5.93;3.80;;;;;;;7.02;100.00;99328.63;7395104;19;20454;-48
2022/02/04 15:24:59;;;;;;;4.50;2.50;;;;;;;7.00;100.00;99314.91;7398980;19;20401;-49
2022/02/04 15:27:30;;;;;;;4.67;3.20;;;;;;;6.97;100.00;99325.06;7396092;19;20454;-49
2022/02/04 15:30:00;;;;;;;4.50;3.93;;;;;;;6.93;100.00;99328.34;7398673;19;20416;-48
2022/02/04 15:32:29;;;;;;;4.73;3.13;;;;;;;6.78;100.00;99311.63;7392818;19;20443;-49
2022/02/04 15:34:59;;;;;;;6.90;5.40;;;;;;;6.77;100.00;99301.31;7399195;19;20404;-51
2022/02/04 15:37:30;;;;;;;5.93;3.23;;;;;;;6.65;100.00;99299.22;7396159;19;20510;-47
2022/02/04 15:40:02;;;;;;;6.80;4.23;;;;;;;6.71;100.00;99287.47;7397154;19;20402;-50
2022/02/04 15:42:34;;;;;;;4.73;3.20;;;;;;;6.68;100.00;99282.25;7395865;19;20439;-47
2022/02/04 15:45:16;;;;;;;7.23;3.90;;;;;;;6.70;100.00;99279.72;7398806;19;20400;-53
2022/02/04 15:47:58;;;;;;;8.27;3.00;;;;;;;6.69;100.00;99280.53;7395845;19;21380;-51
2022/02/04 15:50:36;;;;;;;5.33;3.63;;;;;;;6.69;100.00;99263.50;7397329;19;20425;-49
2022/02/04 15:53:29;;;;;;;4.63;2.50;;;;;;;6.70;100.00;99266.91;7395116;19;20429;-51
2022/02/04 15:56:28;;;;;;;5.53;2.87;;;;;;;6.69;100.00;99273.75;7391659;19;20479;-48
2022/02/04 15:59:09;;;;;;;4.53;2.97;;;;;;;6.69;100.00;99252.34;7394754;19;20397;-50
2022/02/04 16:01:58;;;;;;;3.87;2.47;;;;;;;6.65;100.00;99255.66;7390352;19;20421;-46
2022/02/04 16:04:31;;;;;;;5.27;2.70;;;;;;;6.60;100.00;99248.66;7393841;19;20396;-49
2022/02/04 16:07:01;;;;;;;46.93;12.43;;;;;;;6.67;100.00;99241.19;7392471;19;20948;-52
2022/02/04 16:09:30;;;;;;;16.67;5.53;;;;;;;6.65;100.00;99238.56;7396689;19;20403;-50
2022/02/04 16:12:09;;;;;;;10.70;4.27;;;;;;;6.57;100.00;99240.88;7391501;19;20454;-47
2022/02/04 16:14:44;;;;;;;24.07;6.70;;;;;;;6.62;100.00;99226.50;7394493;19;20392;-52
2022/02/04 16:17:20;;;;;;;24.43;6.90;;;;;;;6.54;100.00;99219.38;7392764;19;20959;-45